Time;durP1;ratioP1;P1;durP2;ratioP2;P2;SDS_P1;SDS_P2;PMS_P1;PMS_P2;Temp;Humidity;BMP_temperature;BMP_pressure;BME280_temperature;BME280_humidity;BME280_pressure;Samples;Min_cycle;Max_cycle;Signal;HPM_P1;HPM_P2
2021/09/11 00:01:06;;;;;;;;;;;17.90;99.90;;;;;;5109211;28;19924;-87
2021/09/11 00:03:33;;;;;;;;;;;17.80;99.90;;;;;;5120232;27;19923;-87
2021/09/11 00:05:58;;;;;;;;;;;17.80;99.90;;;;;;5124540;27;19953;-88
2021/09/11 00:08:24;;;;;;;;;;;17.80;99.90;;;;;;5107950;28;19924;-87
2021/09/11 00:10:50;;;;;;;;;;;17.70;99.90;;;;;;5126286;27;19962;-88
2021/09/11 00:13:15;;;;;;;;;;;17.70;99.90;;;;;;5126592;27;19926;-86
2021/09/11 00:15:41;;;;;;;;;;;17.80;99.90;;;;;;5091073;28;20382;-88
2021/09/11 00:18:06;;;;;;;;;;;17.70;99.90;;;;;;5116790;27;19920;-87
2021/09/11 00:20:32;;;;;;;;;;;17.70;99.90;;;;;;5093019;28;19919;-86
2021/09/11 00:22:59;;;;;;;;;;;17.70;99.90;;;;;;5115734;27;20016;-88
2021/09/11 00:25:25;;;;;;;;;;;17.70;99.90;;;;;;5105604;28;20417;-88
2021/09/11 00:27:50;;;;;;;;;;;17.60;99.90;;;;;;5066048;28;20380;-87
2021/09/11 00:30:16;;;;;;;;;;;17.70;99.90;;;;;;5090841;28;19942;-88
2021/09/11 00:32:43;;;;;;;;;;;17.60;99.90;;;;;;5109567;28;19931;-88
2021/09/11 00:35:13;;;;;;;;;;;17.60;99.90;;;;;;5092146;28;19924;-87
2021/09/11 00:37:39;;;;;;;;;;;17.50;99.90;;;;;;5089638;28;19999;-88
2021/09/11 00:40:04;;;;;;;;;;;17.60;99.90;;;;;;5091054;28;20006;-88
2021/09/11 00:42:30;;;;;;;;;;;17.50;99.90;;;;;;5124303;27;19966;-88
2021/09/11 00:44:56;;;;;;;;;;;17.50;99.90;;;;;;5107090;28;19928;-87
2021/09/11 00:47:21;;;;;;;;;;;17.50;99.90;;;;;;5125684;27;19931;-87
2021/09/11 00:49:47;;;;;;;;;;;17.50;99.90;;;;;;5125973;27;19923;-88
2021/09/11 00:52:13;;;;;;;;;;;17.50;99.90;;;;;;5106254;28;19919;-88
2021/09/11 00:54:39;;;;;;;;;;;17.50;99.90;;;;;;5093719;28;19959;-88
2021/09/11 00:57:05;;;;;;;;;;;17.60;99.90;;;;;;5107638;28;19924;-88
2021/09/11 00:59:30;;;;;;;;;;;17.60;99.90;;;;;;5090715;28;19926;-87
2021/09/11 01:01:56;;;;;;;;;;;17.50;99.90;;;;;;5091116;28;19924;-88
2021/09/11 01:04:22;;;;;;;;;;;17.50;99.90;;;;;;5107821;28;19938;-87
2021/09/11 01:06:48;;;;;;;;;;;17.50;99.90;;;;;;5123161;27;20307;-88
2021/09/11 01:09:14;;;;;;;;;;;17.50;99.90;;;;;;5109347;27;19970;-87
2021/09/11 01:11:40;;;;;;;;;;;17.50;99.90;;;;;;5074203;28;19974;-88
2021/09/11 01:14:05;;;;;;;;;;;17.50;99.90;;;;;;5089690;28;19915;-88
2021/09/11 01:16:33;;;;;;;;;;;17.50;99.90;;;;;;5091537;28;19976;-87
2021/09/11 01:18:59;;;;;;;;;;;17.50;99.90;;;;;;5089178;28;19968;-88
2021/09/11 01:21:24;;;;;;;;;;;17.50;99.90;;;;;;5073530;28;19928;-89
2021/09/11 01:23:50;;;;;;;;;;;17.50;99.90;;;;;;5090897;28;20401;-87
2021/09/11 01:26:16;;;;;;;;;;;17.50;99.90;;;;;;5125470;27;19988;-87
2021/09/11 01:28:41;;;;;;;;;;;17.50;99.90;;;;;;5106086;28;19924;-87
2021/09/11 01:31:07;;;;;;;;;;;17.50;99.90;;;;;;5109629;27;19924;-86
2021/09/11 01:33:32;;;;;;;;;;;17.50;99.90;;;;;;5108015;28;19923;-87
2021/09/11 01:35:58;;;;;;;;;;;17.50;99.90;;;;;;5106469;28;20176;-87
2021/09/11 01:38:24;;;;;;;;;;;17.50;99.90;;;;;;5090313;28;19923;-88
2021/09/11 01:40:50;;;;;;;;;;;17.50;99.90;;;;;;5093310;28;20387;-88
2021/09/11 01:43:15;;;;;;;;;;;17.50;99.90;;;;;;5088550;28;19926;-87
2021/09/11 01:45:41;;;;;;;;;;;17.50;99.90;;;;;;5089981;28;19989;-88
2021/09/11 01:48:07;;;;;;;;;;;17.50;99.90;;;;;;5089785;28;20356;-88
2021/09/11 01:50:32;;;;;;;;;;;17.50;99.90;;;;;;5120430;27;19920;-88
2021/09/11 01:52:58;;;;;;;;;;;17.50;99.90;;;;;;5107105;28;19923;-88
2021/09/11 01:55:23;;;;;;;;;;;17.50;99.90;;;;;;5096150;28;19973;-88
2021/09/11 01:57:49;;;;;;;;;;;17.50;99.90;;;;;;5104639;28;19924;-88
2021/09/11 02:00:16;;;;;;;;;;;17.50;99.90;;;;;;5072445;28;20324;-87
2021/09/11 02:02:41;;;;;;;;;;;17.50;99.90;;;;;;5106766;28;19950;-87
2021/09/11 02:05:09;;;;;;;;;;;17.50;99.90;;;;;;5090672;28;19923;-88
2021/09/11 02:07:35;;;;;;;;;;;17.50;99.90;;;;;;5111762;28;19934;-87
2021/09/11 02:10:01;;;;;;;;;;;17.50;99.90;;;;;;5130818;27;19928;-88
2021/09/11 02:12:27;;;;;;;;;;;17.50;99.90;;;;;;5114489;27;19959;-88
2021/09/11 02:14:52;;;;;;;;;;;17.50;99.90;;;;;;5113253;28;20342;-88
2021/09/11 02:17:18;;;;;;;;;;;17.50;99.90;;;;;;5130799;27;19993;-88
2021/09/11 02:19:43;;;;;;;;;;;17.50;99.90;;;;;;5113533;28;19989;-88
2021/09/11 02:22:10;;;;;;;;;;;17.50;99.90;;;;;;5093882;28;19920;-88
2021/09/11 02:24:37;;;;;;;;;;;17.50;99.90;;;;;;5097589;28;19928;-87
2021/09/11 02:27:03;;;;;;;;;;;17.50;99.90;;;;;;5114272;28;20018;-88
2021/09/11 02:29:28;;;;;;;;;;;17.60;99.90;;;;;;5094278;28;19998;-88
2021/09/11 02:31:54;;;;;;;;;;;17.60;99.90;;;;;;5096825;28;19967;-88
2021/09/11 02:34:23;;;;;;;;;;;17.60;99.90;;;;;;5096753;28;19924;-88
2021/09/11 02:36:48;;;;;;;;;;;17.50;99.90;;;;;;5092877;28;19968;-88
2021/09/11 02:39:14;;;;;;;;;;;17.60;99.90;;;;;;5096469;28;19924;-87
2021/09/11 02:41:40;;;;;;;;;;;17.50;99.90;;;;;;5095973;28;19920;-88
2021/09/11 02:44:06;;;;;;;;;;;17.60;99.90;;;;;;5130044;27;19973;-87
2021/09/11 02:46:31;;;;;;;;;;;17.50;99.90;;;;;;5096645;27;20008;-87
2021/09/11 02:48:58;;;;;;;;;;;17.50;99.90;;;;;;5111752;27;20010;-88
2021/09/11 02:51:24;;;;;;;;;;;17.60;99.90;;;;;;5092753;28;20006;-88
2021/09/11 02:53:50;;;;;;;;;;;17.60;99.90;;;;;;5113930;28;19930;-88
2021/09/11 02:56:15;;;;;;;;;;;17.60;99.90;;;;;;5124685;27;19924;-88
2021/09/11 02:58:41;;;;;;;;;;;17.60;99.90;;;;;;5118926;27;19924;-88
2021/09/11 03:01:07;;;;;;;;;;;17.50;99.90;;;;;;5078372;28;19931;-88
2021/09/11 03:03:32;;;;;;;;;;;17.60;99.90;;;;;;5080423;28;19920;-88
2021/09/11 03:05:58;;;;;;;;;;;17.50;99.90;;;;;;5094347;28;19928;-87
2021/09/11 03:08:23;;;;;;;;;;;17.50;99.90;;;;;;5079798;28;19924;-87
2021/09/11 03:10:49;;;;;;;;;;;17.50;99.90;;;;;;5095382;28;19916;-88
2021/09/11 03:13:15;;;;;;;;;;;17.50;99.90;;;;;;5059104;28;19931;-88
2021/09/11 03:15:40;;;;;;;;;;;17.50;99.90;;;;;;5111036;28;19988;-87
2021/09/11 03:18:06;;;;;;;;;;;17.50;99.90;;;;;;5110674;27;20019;-87
2021/09/11 03:20:32;;;;;;;;;;;17.50;99.90;;;;;;5076172;28;20022;-87
2021/09/11 03:22:57;;;;;;;;;;;17.50;99.90;;;;;;5075099;28;19924;-87
2021/09/11 03:25:23;;;;;;;;;;;17.50;99.90;;;;;;5094049;28;20295;-88
2021/09/11 03:27:49;;;;;;;;;;;17.50;99.90;;;;;;5108144;28;20828;-87
2021/09/11 03:30:14;;;;;;;;;;;17.50;99.90;;;;;;5093420;28;19923;-88
2021/09/11 03:32:40;;;;;;;;;;;17.50;99.90;;;;;;5071714;28;20384;-87
2021/09/11 03:35:06;;;;;;;;;;;17.50;99.90;;;;;;5092993;28;19920;-87
2021/09/11 03:37:32;;;;;;;;;;;17.50;99.90;;;;;;5110081;28;19923;-88
2021/09/11 03:39:58;;;;;;;;;;;17.50;99.90;;;;;;5093462;28;19931;-88
2021/09/11 03:42:23;;;;;;;;;;;17.50;99.90;;;;;;5107712;28;19924;-87
2021/09/11 03:44:49;;;;;;;;;;;17.40;99.90;;;;;;5110547;28;19953;-87
2021/09/11 03:47:15;;;;;;;;;;;17.50;99.90;;;;;;5122101;27;19924;-88
2021/09/11 03:49:40;;;;;;;;;;;17.50;99.90;;;;;;5109215;28;19980;-88
2021/09/11 03:52:06;;;;;;;;;;;17.50;99.90;;;;;;5091659;28;19973;-87
2021/09/11 03:54:31;;;;;;;;;;;17.60;99.90;;;;;;5110408;28;20327;-88
2021/09/11 03:56:57;;;;;;;;;;;17.50;99.90;;;;;;5125636;27;19924;-88
2021/09/11 03:59:23;;;;;;;;;;;17.60;99.90;;;;;;5114283;27;20306;-88
2021/09/11 04:01:48;;;;;;;;;;;17.60;99.90;;;;;;5079163;28;19926;-87
2021/09/11 04:04:14;;;;;;;;;;;17.60;99.90;;;;;;5090194;28;20836;-87
2021/09/11 04:06:39;;;;;;;;;;;17.60;99.90;;;;;;5092635;28;19973;-88
2021/09/11 04:09:05;;;;;;;;;;;17.70;99.90;;;;;;5126249;27;19968;-87
2021/09/11 04:11:31;;;;;;;;;;;17.70;99.90;;;;;;5097433;28;19939;-87
2021/09/11 04:13:56;;;;;;;;;;;17.70;99.90;;;;;;5075494;28;19930;-87
2021/09/11 04:16:22;;;;;;;;;;;17.70;99.90;;;;;;5068025;28;19967;-87
2021/09/11 04:18:47;;;;;;;;;;;17.70;99.90;;;;;;5125184;27;19928;-87
2021/09/11 04:21:13;;;;;;;;;;;17.70;99.90;;;;;;5098002;28;19963;-87
2021/09/11 04:23:38;;;;;;;;;;;17.70;99.90;;;;;;5091643;28;19970;-86
2021/09/11 04:26:04;;;;;;;;;;;17.70;99.90;;;;;;5074327;28;19990;-88
2021/09/11 04:28:30;;;;;;;;;;;17.70;99.90;;;;;;5091143;28;20047;-88
2021/09/11 04:30:55;;;;;;;;;;;17.70;99.90;;;;;;5108551;28;19923;-88
2021/09/11 04:33:21;;;;;;;;;;;17.70;99.90;;;;;;5069379;28;19927;-88
2021/09/11 04:35:47;;;;;;;;;;;17.70;99.90;;;;;;5088491;28;19988;-88
2021/09/11 04:38:12;;;;;;;;;;;17.70;99.90;;;;;;5134033;27;19934;-88
2021/09/11 04:40:38;;;;;;;;;;;17.70;99.90;;;;;;5125694;27;19983;-88
2021/09/11 04:43:07;;;;;;;;;;;17.80;99.90;;;;;;5103308;28;19920;-87
2021/09/11 04:45:33;;;;;;;;;;;17.80;99.90;;;;;;5097766;28;19924;-87
2021/09/11 04:47:58;;;;;;;;;;;17.80;99.90;;;;;;5108535;28;19919;-88
2021/09/11 04:50:24;;;;;;;;;;;17.80;99.90;;;;;;5091256;28;19924;-87
2021/09/11 04:52:50;;;;;;;;;;;17.80;99.90;;;;;;5091837;28;19974;-88
2021/09/11 04:55:16;;;;;;;;;;;17.80;99.90;;;;;;5091312;28;20088;-87
2021/09/11 04:57:42;;;;;;;;;;;17.80;99.90;;;;;;5106256;28;19962;-88
2021/09/11 05:00:08;;;;;;;;;;;17.80;99.90;;;;;;5092258;28;19920;-87
2021/09/11 05:02:33;;;;;;;;;;;17.80;99.90;;;;;;5074280;28;19919;-88
2021/09/11 05:04:59;;;;;;;;;;;17.80;99.90;;;;;;5089936;28;19928;-86
2021/09/11 05:07:24;;;;;;;;;;;17.90;99.90;;;;;;5070985;28;20021;-87
2021/09/11 05:09:51;;;;;;;;;;;17.90;99.90;;;;;;5108609;28;19926;-87
2021/09/11 05:12:16;;;;;;;;;;;17.90;99.90;;;;;;5089360;28;20263;-87
2021/09/11 05:14:42;;;;;;;;;;;17.90;99.90;;;;;;5091034;28;20555;-87
2021/09/11 05:17:07;;;;;;;;;;;17.90;99.90;;;;;;5072451;28;19977;-87
2021/09/11 05:19:33;;;;;;;;;;;17.90;99.90;;;;;;5106531;28;20259;-87
2021/09/11 05:21:59;;;;;;;;;;;17.90;99.90;;;;;;5125605;27;19984;-88
2021/09/11 05:24:25;;;;;;;;;;;17.90;99.90;;;;;;5107609;28;19927;-87
2021/09/11 05:26:50;;;;;;;;;;;17.90;99.90;;;;;;5088637;28;20338;-87
2021/09/11 05:29:16;;;;;;;;;;;17.90;99.90;;;;;;5112474;27;20405;-88
2021/09/11 05:31:48;;;;;;;;;;;17.90;99.90;;;;;;5070696;28;19945;-87
2021/09/11 05:34:16;;;;;;;;;;;17.90;99.90;;;;;;5071905;28;19920;-87
2021/09/11 05:36:42;;;;;;;;;;;17.90;99.90;;;;;;5096746;28;19931;-87
2021/09/11 05:39:08;;;;;;;;;;;17.90;99.90;;;;;;5090835;28;19927;-89
2021/09/11 05:41:33;;;;;;;;;;;17.90;99.90;;;;;;5087434;28;19930;-86
2021/09/11 05:44:02;;;;;;;;;;;17.90;99.90;;;;;;5090634;28;20379;-86
2021/09/11 05:46:28;;;;;;;;;;;17.90;99.90;;;;;;5124486;27;19978;-87
2021/09/11 05:48:54;;;;;;;;;;;17.90;99.90;;;;;;5117567;27;20450;-88
2021/09/11 05:51:20;;;;;;;;;;;18.00;99.90;;;;;;5074801;28;19920;-88
2021/09/11 05:53:45;;;;;;;;;;;18.00;99.90;;;;;;5089529;28;20336;-88
2021/09/11 05:56:11;;;;;;;;;;;18.00;99.90;;;;;;5105705;28;20037;-89
2021/09/11 05:58:37;;;;;;;;;;;18.00;99.90;;;;;;5107808;28;19928;-90
2021/09/11 06:01:02;;;;;;;;;;;18.00;99.90;;;;;;5107088;28;19969;-87
2021/09/11 06:03:28;;;;;;;;;;;18.00;99.90;;;;;;5112235;27;19924;-87
2021/09/11 06:05:55;;;;;;;;;;;18.10;99.90;;;;;;5105612;28;20365;-88
2021/09/11 06:08:21;;;;;;;;;;;18.10;99.90;;;;;;5071546;28;19938;-88
2021/09/11 06:10:47;;;;;;;;;;;18.10;99.90;;;;;;5103491;28;19928;-89
2021/09/11 06:13:12;;;;;;;;;;;18.10;99.90;;;;;;5106752;28;20371;-87
2021/09/11 06:15:38;;;;;;;;;;;18.10;99.90;;;;;;5090647;28;20426;-87
2021/09/11 06:18:03;;;;;;;;;;;18.10;99.90;;;;;;5105524;28;20280;-87
2021/09/11 06:20:29;;;;;;;;;;;18.10;99.90;;;;;;5099665;28;19924;-88
2021/09/11 06:22:55;;;;;;;;;;;18.10;99.90;;;;;;5087783;28;19924;-88
2021/09/11 06:25:21;;;;;;;;;;;18.10;99.90;;;;;;5071761;28;19936;-87
2021/09/11 06:27:47;;;;;;;;;;;18.20;99.90;;;;;;5088466;28;19920;-88
2021/09/11 06:30:13;;;;;;;;;;;18.20;99.90;;;;;;5088675;28;19975;-86
2021/09/11 06:32:39;;;;;;;;;;;18.20;99.90;;;;;;5071959;28;19920;-89
2021/09/11 06:35:08;;;;;;;;;;;18.20;99.90;;;;;;5093240;28;19924;-87
2021/09/11 06:37:33;;;;;;;;;;;18.20;99.90;;;;;;5090643;28;20015;-88
2021/09/11 06:40:02;;;;;;;;;;;18.20;99.90;;;;;;5092581;28;19930;-88
2021/09/11 06:42:28;;;;;;;;;;;18.20;99.90;;;;;;5073637;28;19928;-88
2021/09/11 06:44:53;;;;;;;;;;;18.20;99.90;;;;;;5103428;28;19931;-90
2021/09/11 06:47:19;;;;;;;;;;;18.20;99.90;;;;;;5106961;28;20394;-88
2021/09/11 06:49:44;;;;;;;;;;;18.20;99.90;;;;;;5081303;28;19920;-90
2021/09/11 06:52:11;;;;;;;;;;;18.20;99.90;;;;;;5091619;28;20374;-89
2021/09/11 06:54:36;;;;;;;;;;;18.20;99.90;;;;;;5093359;28;20766;-90
2021/09/11 06:57:02;;;;;;;;;;;18.30;99.90;;;;;;5100645;28;20379;-87
2021/09/11 06:59:28;;;;;;;;;;;18.20;99.90;;;;;;5090931;28;19930;-87
2021/09/11 07:01:53;;;;;;;;;;;18.30;99.90;;;;;;5109741;28;20536;-86
2021/09/11 07:04:19;;;;;;;;;;;18.20;99.90;;;;;;5103572;28;19924;-88
2021/09/11 07:06:45;;;;;;;;;;;18.30;99.90;;;;;;5118558;27;20414;-84
2021/09/11 07:09:11;;;;;;;;;;;18.30;99.90;;;;;;5093681;28;19977;-90
2021/09/11 07:11:36;;;;;;;;;;;18.30;99.90;;;;;;5095802;28;19920;-92
2021/09/11 07:14:02;;;;;;;;;;;18.30;99.90;;;;;;5095082;28;19924;-89
2021/09/11 07:16:28;;;;;;;;;;;18.20;99.90;;;;;;5093448;28;19930;-93
2021/09/11 07:18:53;;;;;;;;;;;18.30;99.90;;;;;;5123592;27;19920;-90
2021/09/11 07:21:19;;;;;;;;;;;18.30;99.90;;;;;;5076174;28;19924;-87
2021/09/11 07:23:45;;;;;;;;;;;18.30;99.90;;;;;;5094440;28;19994;-93
2021/09/11 07:26:12;;;;;;;;;;;18.30;99.90;;;;;;5094025;28;19954;-83
2021/09/11 07:28:37;;;;;;;;;;;18.30;99.90;;;;;;5110734;28;19935;-85
2021/09/11 07:31:03;;;;;;;;;;;18.30;99.90;;;;;;5127396;27;19923;-90
2021/09/11 07:33:28;;;;;;;;;;;18.30;99.90;;;;;;5123678;27;19923;-86
2021/09/11 07:35:54;;;;;;;;;;;18.30;99.90;;;;;;5093250;28;20328;-90
2021/09/11 07:38:20;;;;;;;;;;;18.40;99.90;;;;;;5073899;28;20246;-91
2021/09/11 07:40:45;;;;;;;;;;;18.40;99.90;;;;;;5142687;27;19955;-92
2021/09/11 07:43:11;;;;;;;;;;;18.40;99.90;;;;;;5114061;27;19924;-94
2021/09/11 07:45:37;;;;;;;;;;;18.40;99.90;;;;;;5076504;28;19974;-96
2021/09/11 07:48:04;;;;;;;;;;;18.40;99.90;;;;;;5096856;28;19920;-95
2021/09/11 07:50:30;;;;;;;;;;;18.40;99.90;;;;;;5112762;28;19932;-94
2021/09/11 07:52:57;;;;;;;;;;;18.40;99.90;;;;;;5095804;28;20023;-92
2021/09/11 07:55:23;;;;;;;;;;;18.40;99.90;;;;;;5093876;28;19996;-92
2021/09/11 07:57:48;;;;;;;;;;;18.40;99.90;;;;;;5072392;28;20378;-89
2021/09/11 08:00:18;;;;;;;;;;;18.40;99.90;;;;;;5073070;28;19950;-90
2021/09/11 08:02:43;;;;;;;;;;;18.40;99.90;;;;;;5106459;28;19927;-88
2021/09/11 08:05:09;;;;;;;;;;;18.40;99.90;;;;;;5097893;28;19988;-87
2021/09/11 08:07:37;;;;;;;;;;;18.50;99.90;;;;;;5090045;28;19935;-86
2021/09/11 08:10:06;;;;;;;;;;;18.50;99.90;;;;;;5091001;28;19989;-88
2021/09/11 08:12:32;;;;;;;;;;;18.50;99.90;;;;;;5106529;28;19924;-86
2021/09/11 08:14:58;;;;;;;;;;;18.50;99.90;;;;;;5093831;28;19972;-85
2021/09/11 08:17:27;;;;;;;;;;;18.60;99.90;;;;;;5097892;28;19931;-87
2021/09/11 08:19:52;;;;;;;;;;;18.60;99.90;;;;;;5090804;28;19924;-87
2021/09/11 08:22:18;;;;;;;;;;;18.60;99.90;;;;;;5090888;28;19924;-88
2021/09/11 08:24:44;;;;;;;;;;;18.60;99.90;;;;;;5123962;27;19997;-88
2021/09/11 08:27:09;;;;;;;;;;;18.70;99.90;;;;;;5107220;28;20001;-87
2021/09/11 08:29:35;;;;;;;;;;;18.70;99.90;;;;;;5124967;27;20002;-89
2021/09/11 08:32:02;;;;;;;;;;;18.70;99.90;;;;;;5105173;28;19930;-88
2021/09/11 08:34:28;;;;;;;;;;;18.70;99.90;;;;;;5124173;27;19924;-86
2021/09/11 08:36:53;;;;;;;;;;;18.70;99.90;;;;;;5106957;28;20329;-87
2021/09/11 08:39:19;;;;;;;;;;;18.70;99.90;;;;;;5105538;28;20437;-87
2021/09/11 08:41:46;;;;;;;;;;;18.80;99.90;;;;;;5105817;28;19947;-87
2021/09/11 08:44:12;;;;;;;;;;;18.70;99.90;;;;;;5106923;28;20107;-87
2021/09/11 08:46:38;;;;;;;;;;;18.80;99.90;;;;;;5123519;27;19931;-86
2021/09/11 08:49:03;;;;;;;;;;;18.80;99.90;;;;;;5091639;28;19924;-87
2021/09/11 08:51:29;;;;;;;;;;;18.80;99.90;;;;;;5106430;28;19964;-87
2021/09/11 08:53:54;;;;;;;;;;;18.80;99.90;;;;;;5093218;28;20002;-87
2021/09/11 08:56:20;;;;;;;;;;;18.70;99.90;;;;;;5105044;27;19924;-86
2021/09/11 08:58:46;;;;;;;;;;;18.70;99.90;;;;;;5106423;27;19923;-86
2021/09/11 09:01:11;;;;;;;;;;;18.80;99.90;;;;;;5086871;28;19920;-86
2021/09/11 09:03:41;;;;;;;;;;;18.80;99.90;;;;;;5112932;27;19923;-87
2021/09/11 09:06:10;;;;;;;;;;;18.80;99.90;;;;;;5085890;28;19967;-86
2021/09/11 09:08:35;;;;;;;;;;;18.80;99.90;;;;;;5107946;27;19927;-86
2021/09/11 09:11:14;;;;;;;;;;;18.80;99.90;;;;;;5108518;27;20264;-91
2021/09/11 09:13:58;;;;;;;;;;;18.80;99.90;;;;;;5089016;28;19930;-89
2021/09/11 09:16:25;;;;;;;;;;;18.80;99.90;;;;;;5116045;27;19939;-89
2021/09/11 09:18:51;;;;;;;;;;;18.80;99.90;;;;;;5089621;28;19927;-88
2021/09/11 09:21:19;;;;;;;;;;;18.70;99.90;;;;;;5120742;27;19919;-91
2021/09/11 09:23:49;;;;;;;;;;;18.80;99.90;;;;;;5105085;28;20096;-89
2021/09/11 09:26:15;;;;;;;;;;;18.80;99.90;;;;;;5088238;28;19932;-88
2021/09/11 09:28:41;;;;;;;;;;;18.80;99.90;;;;;;5124443;27;19924;-89
2021/09/11 09:31:09;;;;;;;;;;;18.80;99.90;;;;;;5124192;27;19931;-89
2021/09/11 09:33:36;;;;;;;;;;;18.80;99.90;;;;;;5085821;28;20374;-88
2021/09/11 09:36:02;;;;;;;;;;;18.90;99.90;;;;;;5091464;28;19930;-90
2021/09/11 09:38:28;;;;;;;;;;;18.80;99.90;;;;;;5123124;27;20310;-89
2021/09/11 09:40:54;;;;;;;;;;;18.70;99.90;;;;;;5107357;28;19927;-89
2021/09/11 09:43:34;;;;;;;;;;;18.60;99.90;;;;;;5124039;27;19924;-89
2021/09/11 09:46:09;;;;;;;;;;;18.50;99.90;;;;;;5105125;27;20003;-88
2021/09/11 09:48:36;;;;;;;;;;;18.50;99.90;;;;;;5065818;28;19931;-88
2021/09/11 09:51:03;;;;;;;;;;;18.40;99.90;;;;;;5077577;28;20378;-89
2021/09/11 09:53:29;;;;;;;;;;;18.40;99.90;;;;;;5085836;28;19920;-87
2021/09/11 09:55:55;;;;;;;;;;;18.40;99.90;;;;;;5088750;28;19923;-89
2021/09/11 09:58:21;;;;;;;;;;;18.40;99.90;;;;;;5073851;28;20366;-89
2021/09/11 10:00:48;;;;;;;;;;;18.40;99.90;;;;;;5086143;28;19930;-89
2021/09/11 10:03:13;;;;;;;;;;;18.40;99.90;;;;;;5082426;28;20031;-89
2021/09/11 10:05:40;;;;;;;;;;;18.40;99.90;;;;;;5110965;28;20045;-88
2021/09/11 10:08:08;;;;;;;;;;;18.40;99.90;;;;;;5081712;28;19934;-88
2021/09/11 10:10:35;;;;;;;;;;;18.40;99.90;;;;;;5084451;28;19928;-87
2021/09/11 10:13:08;;;;;;;;;;;18.40;99.90;;;;;;5088763;28;19958;-87
2021/09/11 10:15:35;;;;;;;;;;;18.30;99.90;;;;;;5087035;28;19924;-89
2021/09/11 10:18:02;;;;;;;;;;;18.30;99.90;;;;;;5112619;27;19931;-90
2021/09/11 10:20:27;;;;;;;;;;;18.30;99.90;;;;;;5088850;28;19938;-89
2021/09/11 10:23:06;;;;;;;;;;;18.30;99.90;;;;;;5131811;27;19927;-90
2021/09/11 10:25:39;;;;;;;;;;;18.30;99.90;;;;;;5107249;28;19927;-91
2021/09/11 10:28:18;;;;;;;;;;;18.30;99.90;;;;;;5091284;28;20271;-86
2021/09/11 10:31:03;;;;;;;;;;;18.40;99.90;;;;;;5124888;27;19923;-86
2021/09/11 10:33:38;;;;;;;;;;;18.40;99.90;;;;;;5109373;28;19979;-88
2021/09/11 10:36:04;;;;;;;;;;;18.30;99.90;;;;;;5106987;28;19920;-87
2021/09/11 10:38:40;;;;;;;;;;;18.40;99.90;;;;;;5112268;27;19971;-87
2021/09/11 10:41:14;;;;;;;;;;;18.40;99.90;;;;;;5075792;28;19923;-86
2021/09/11 10:43:59;;;;;;;;;;;18.40;99.90;;;;;;5090450;28;19924;-88
2021/09/11 10:46:44;;;;;;;;;;;18.50;99.90;;;;;;5097147;28;19928;-86
2021/09/11 10:49:26;;;;;;;;;;;18.50;99.90;;;;;;5074562;28;19931;-86
2021/09/11 10:52:03;;;;;;;;;;;18.50;99.90;;;;;;5135431;27;19927;-86
2021/09/11 10:54:30;;;;;;;;;;;18.60;99.90;;;;;;5080752;28;19927;-87
2021/09/11 10:56:59;;;;;;;;;;;18.60;99.90;;;;;;5089953;28;19972;-88
2021/09/11 10:59:26;;;;;;;;;;;18.70;99.90;;;;;;5082736;28;20009;-91
2021/09/11 11:01:58;;;;;;;;;;;18.70;99.90;;;;;;5093335;28;20014;-90
2021/09/11 11:04:27;;;;;;;;;;;18.70;99.90;;;;;;5097653;28;19931;-86
2021/09/11 11:06:55;;;;;;;;;;;18.80;99.90;;;;;;5090383;28;19932;-87
2021/09/11 11:09:21;;;;;;;;;;;18.80;99.90;;;;;;5118834;27;19984;-87
2021/09/11 11:11:47;;;;;;;;;;;18.80;99.90;;;;;;5091340;28;19971;-87
2021/09/11 11:14:13;;;;;;;;;;;18.80;99.90;;;;;;5107949;28;19931;-88
2021/09/11 11:16:50;;;;;;;;;;;19.00;99.90;;;;;;5091302;28;19920;-87
2021/09/11 11:19:26;;;;;;;;;;;19.00;99.90;;;;;;5108838;28;19920;-87
2021/09/11 11:21:53;;;;;;;;;;;19.10;99.90;;;;;;5107299;28;19930;-88
2021/09/11 11:24:19;;;;;;;;;;;19.20;99.90;;;;;;5125178;27;19930;-88
2021/09/11 11:26:45;;;;;;;;;;;19.30;99.90;;;;;;5107163;28;19920;-88
2021/09/11 11:29:12;;;;;;;;;;;19.30;99.90;;;;;;5089922;28;20328;-88
2021/09/11 11:31:42;;;;;;;;;;;19.30;99.90;;;;;;5125559;27;19965;-89
2021/09/11 11:34:07;;;;;;;;;;;19.40;99.90;;;;;;5089002;28;20472;-88
2021/09/11 11:36:33;;;;;;;;;;;19.40;99.90;;;;;;5108447;27;20035;-88
2021/09/11 11:39:16;;;;;;;;;;;19.30;99.90;;;;;;5074296;28;19968;-89
2021/09/11 11:41:42;;;;;;;;;;;19.30;99.90;;;;;;5092454;28;19924;-88
2021/09/11 11:44:08;;;;;;;;;;;19.30;99.90;;;;;;5107814;27;19920;-88
2021/09/11 11:46:34;;;;;;;;;;;19.30;99.90;;;;;;5126230;27;19987;-88
2021/09/11 11:49:00;;;;;;;;;;;19.30;99.90;;;;;;5089931;28;19973;-88
2021/09/11 11:51:25;;;;;;;;;;;19.30;99.90;;;;;;5125547;27;19927;-88
2021/09/11 11:53:51;;;;;;;;;;;19.30;99.90;;;;;;5108783;28;19938;-88
2021/09/11 11:56:16;;;;;;;;;;;19.30;99.90;;;;;;5091324;28;20290;-88
2021/09/11 11:58:42;;;;;;;;;;;19.20;99.90;;;;;;5109636;27;19924;-88
2021/09/11 12:01:07;;;;;;;;;;;19.30;99.90;;;;;;5125896;27;20521;-88
2021/09/11 12:03:41;;;;;;;;;;;19.30;99.90;;;;;;5125850;27;19926;-89
2021/09/11 12:06:27;;;;;;;;;;;19.30;99.90;;;;;;5107025;27;19928;-88
2021/09/11 12:08:53;;;;;;;;;;;19.30;99.90;;;;;;5071229;28;19920;-89
2021/09/11 12:11:23;;;;;;;;;;;19.40;99.90;;;;;;5077795;28;20397;-88
2021/09/11 12:13:51;;;;;;;;;;;19.50;99.90;;;;;;5089985;28;20379;-89
2021/09/11 12:16:17;;;;;;;;;;;19.60;99.90;;;;;;5126393;27;19919;-89
2021/09/11 12:18:46;;;;;;;;;;;19.60;99.90;;;;;;5125152;27;19931;-89
2021/09/11 12:21:13;;;;;;;;;;;19.60;99.90;;;;;;5090922;28;20287;-88
2021/09/11 12:23:39;;;;;;;;;;;19.70;99.90;;;;;;5092020;28;19942;-89
2021/09/11 12:26:06;;;;;;;;;;;19.60;99.90;;;;;;5091666;28;19927;-89
2021/09/11 12:28:32;;;;;;;;;;;19.60;99.90;;;;;;5088977;28;20700;-88
2021/09/11 12:30:57;;;;;;;;;;;19.60;99.90;;;;;;5107824;28;20410;-88
2021/09/11 12:33:24;;;;;;;;;;;19.50;99.90;;;;;;5073169;28;19923;-88
2021/09/11 12:35:50;;;;;;;;;;;19.50;99.90;;;;;;5105907;28;19949;-88
2021/09/11 12:38:15;;;;;;;;;;;19.60;99.90;;;;;;5108632;28;19924;-89
2021/09/11 12:40:41;;;;;;;;;;;19.70;99.90;;;;;;5125552;27;19916;-88
2021/09/11 12:43:06;;;;;;;;;;;19.70;99.90;;;;;;5106009;28;19931;-89
2021/09/11 12:45:33;;;;;;;;;;;19.70;99.90;;;;;;5107217;28;20420;-88
2021/09/11 12:47:59;;;;;;;;;;;19.70;99.90;;;;;;5105930;28;19978;-88
2021/09/11 12:50:24;;;;;;;;;;;19.80;99.90;;;;;;5103952;28;19970;-85
2021/09/11 12:52:50;;;;;;;;;;;19.80;99.90;;;;;;5089654;28;20061;-88
2021/09/11 12:55:16;;;;;;;;;;;19.90;99.90;;;;;;5088765;28;19920;-87
2021/09/11 12:57:42;;;;;;;;;;;19.80;99.90;;;;;;5121532;27;19920;-87
2021/09/11 13:00:08;;;;;;;;;;;19.90;99.90;;;;;;5122962;27;19940;-87
2021/09/11 13:02:34;;;;;;;;;;;20.00;99.90;;;;;;5122937;27;20326;-87
2021/09/11 13:04:59;;;;;;;;;;;20.10;99.90;;;;;;5105158;28;19935;-88
2021/09/11 13:07:25;;;;;;;;;;;20.20;99.90;;;;;;5123427;27;20034;-87
2021/09/11 13:09:51;;;;;;;;;;;20.20;99.90;;;;;;5089669;28;20510;-87
2021/09/11 13:12:18;;;;;;;;;;;20.20;99.90;;;;;;5091094;28;19931;-88
2021/09/11 13:14:45;;;;;;;;;;;20.10;99.90;;;;;;5087561;28;19920;-87
2021/09/11 13:17:11;;;;;;;;;;;20.10;99.90;;;;;;5104450;28;20419;-87
2021/09/11 13:19:37;;;;;;;;;;;20.10;99.90;;;;;;5069075;28;20053;-88
2021/09/11 13:22:03;;;;;;;;;;;20.00;99.90;;;;;;5085257;28;19924;-86
2021/09/11 13:24:32;;;;;;;;;;;20.00;99.90;;;;;;5121733;27;19937;-87
2021/09/11 13:26:57;;;;;;;;;;;20.00;99.90;;;;;;5087711;28;19976;-87
2021/09/11 13:29:25;;;;;;;;;;;20.00;99.90;;;;;;5090489;28;20399;-87
2021/09/11 13:31:53;;;;;;;;;;;19.90;99.90;;;;;;5107254;28;19926;-87
2021/09/11 13:34:19;;;;;;;;;;;19.90;99.90;;;;;;5106399;28;19928;-89
2021/09/11 13:36:44;;;;;;;;;;;19.90;99.90;;;;;;5107995;28;19930;-88
2021/09/11 13:39:10;;;;;;;;;;;19.80;99.90;;;;;;5108110;28;19923;-88
2021/09/11 13:41:35;;;;;;;;;;;19.80;99.90;;;;;;5105803;28;20310;-88
2021/09/11 13:44:01;;;;;;;;;;;19.80;99.90;;;;;;5111147;27;19973;-88
2021/09/11 13:46:27;;;;;;;;;;;19.70;99.90;;;;;;5074930;28;19932;-88
2021/09/11 13:48:53;;;;;;;;;;;19.70;99.90;;;;;;5104614;28;19930;-87
2021/09/11 13:51:22;;;;;;;;;;;19.60;99.90;;;;;;5105831;28;20410;-87
2021/09/11 13:53:48;;;;;;;;;;;19.60;99.90;;;;;;5090137;28;19928;-87
2021/09/11 13:56:14;;;;;;;;;;;19.50;99.90;;;;;;5071906;28;19954;-88
2021/09/11 13:58:40;;;;;;;;;;;19.50;99.90;;;;;;5107443;28;19924;-87
2021/09/11 14:01:06;;;;;;;;;;;19.50;99.90;;;;;;5120293;27;19928;-87
2021/09/11 14:03:31;;;;;;;;;;;19.50;99.90;;;;;;5120522;27;19926;-88
2021/09/11 14:05:57;;;;;;;;;;;19.50;99.90;;;;;;5088541;28;20089;-88
2021/09/11 14:08:23;;;;;;;;;;;19.50;99.90;;;;;;5066075;28;19928;-88
2021/09/11 14:10:49;;;;;;;;;;;19.50;99.90;;;;;;5097328;28;19920;-88
2021/09/11 14:13:15;;;;;;;;;;;19.50;99.90;;;;;;5088136;28;20386;-87